»·PEaware :: FDX1850 KSLC-KDTA

FDX1850 :: KSLC-KDTA

FLIGHT INFORMATION

Flight Status: Arrived
Operator:
Federal Express
More flights by this operator :: More flights under this callsign
Pilot: Jacob H. (10561)
Aircraft: BEECH AIRCRAFT BEECH AIRLINER
(B190)
More flights by this aircraft type
Origin: KSLC Salt Lake City Intl
United States
Destination: KDTA Delta Mun
United States
More flights between these airports :: More routes between these airports
Route: +SLC3 FFU V21 PUCIT
File this flight plan on PilotEdge
Remarks:
Altitude:
(Current/Filed)
15,000ft
Speed:
(Current/Filed)
262kts
Departed: 28-Jul-17 05:23 PM
Arrived: 28-Jul-17 05:50 PM
Distance/Time
Traveled:
88nm/0:27
Distance/Time
To Go:
Arrived

Flight Plot

Page will automatically refresh every two minutes.

Flight plan parsing failed; only flown route is shown


Map Options




Map Legend


Flown Route
Filed Route
Departure Airport
Arrival Airport
Navaid (VOR, NDB)
Fix

Horizontal Profiles

Position Reports

Time Latitude Longitude Heading Altitude Ground
Speed
28-Jul-17 16:59 40.778323 -111.977276 260 4232ft 0kts
28-Jul-17 17:00 40.778323 -111.977276 260 4232ft 0kts
28-Jul-17 17:01 40.778323 -111.977276 260 4232ft 0kts
28-Jul-17 17:02 40.778323 -111.977276 260 4232ft 0kts
28-Jul-17 17:03 40.778323 -111.977276 260 4232ft 0kts
28-Jul-17 17:04 40.778323 -111.977276 260 4232ft 0kts
28-Jul-17 17:05 40.778323 -111.977276 260 4232ft 0kts
28-Jul-17 17:06 40.778323 -111.977276 260 4232ft 0kts
28-Jul-17 17:07 40.778323 -111.977276 260 4232ft 0kts
28-Jul-17 17:08 40.778323 -111.977276 260 4232ft 0kts
28-Jul-17 17:09 40.778323 -111.977276 260 4232ft 0kts
28-Jul-17 17:10 40.778323 -111.977276 260 4232ft 0kts
28-Jul-17 17:11 40.778323 -111.977276 259 4232ft 0kts
28-Jul-17 17:12 40.778323 -111.977276 259 4232ft 0kts
28-Jul-17 17:13 40.778323 -111.977276 260 4232ft 0kts
28-Jul-17 17:14 40.778323 -111.977276 260 4232ft 0kts
28-Jul-17 17:15 40.778323 -111.977276 260 4232ft 0kts
28-Jul-17 17:16 40.778323 -111.977276 260 4232ft 0kts
28-Jul-17 17:17 40.778323 -111.977276 260 4232ft 0kts
28-Jul-17 17:18 40.778323 -111.977276 260 4232ft 0kts
28-Jul-17 17:19 40.778360 -111.977521 318 4232ft 4kts
28-Jul-17 17:20 40.778360 -111.976472 86 4232ft 0kts
28-Jul-17 17:21 40.778359 -111.976010 105 4232ft 7kts
28-Jul-17 17:22 40.775545 -111.974659 95 4232ft 3kts
28-Jul-17 17:23 40.775543 -111.974621 92 4232ft 0kts
28-Jul-17 17:24 40.775543 -111.974621 92 4232ft 0kts
28-Jul-17 17:25 40.775848 -111.973267 360 4232ft 12kts
28-Jul-17 17:26 40.801472 -111.976037 356 4913ft 153kts
28-Jul-17 17:27 40.830987 -112.009857 279 7575ft 186kts
28-Jul-17 17:28 40.832289 -112.067227 272 11225ft 173kts
28-Jul-17 17:29 40.826171 -112.121935 218 14113ft 181kts
28-Jul-17 17:30 40.773812 -112.117468 171 15016ft 258kts
28-Jul-17 17:31 40.705785 -112.101081 171 14997ft 289kts
28-Jul-17 17:32 40.631650 -112.086733 171 14993ft 306kts
28-Jul-17 17:33 40.558121 -112.060500 162 14999ft 303kts
28-Jul-17 17:34 40.486303 -112.028417 163 15010ft 302kts
28-Jul-17 17:35 40.413571 -111.997823 164 15019ft 301kts
28-Jul-17 17:36 40.341055 -111.967816 164 15025ft 301kts
28-Jul-17 17:37 40.268386 -111.937813 165 15027ft 301kts
28-Jul-17 17:38 40.209200 -111.982178 211 15012ft 293kts
28-Jul-17 17:39 40.141074 -112.020759 205 15027ft 295kts
28-Jul-17 17:40 40.072474 -112.060342 205 15027ft 295kts
28-Jul-17 17:41 40.005244 -112.099665 205 15026ft 295kts
28-Jul-17 17:42 39.938615 -112.138766 205 15021ft 295kts
28-Jul-17 17:43 39.872214 -112.177566 205 15015ft 295kts
28-Jul-17 17:44 39.805906 -112.216240 205 15004ft 295kts
28-Jul-17 17:45 39.737690 -112.251740 204 14995ft 295kts
28-Jul-17 17:46 39.669262 -112.290497 205 14870ft 298kts
28-Jul-17 17:47 39.603959 -112.328609 205 13823ft 275kts
28-Jul-17 17:48 39.541015 -112.365695 205 12446ft 273kts
28-Jul-17 17:49 39.479446 -112.404696 223 10961ft 262kts
28-Jul-17 17:50 39.466137 -112.482965 260 8588ft 249kts
28-Jul-17 17:51 39.421911 -112.512714 158 5978ft 205kts
28-Jul-17 17:52 39.386686 -112.502211 181 4765ft 105kts
28-Jul-17 17:53 39.376060 -112.502324 183 4760ft 2kts

Navigation Log

Ident Type
Flight plan parsing failed, navigation log unavailable